Welcome to the New NWS' Forecast!
Most changes are behind the scenes, but click here for differences you might notice.

Terminal Aerodrome Forecast (TAF)

Issued by National Weather Service (NWS)

                            
000
FTUS42 KKEY 172340
TAFEYW
TAF
KEYW 172340Z 1800/1824 09012G20KT P6SM FEW025
     FM180300 08008G16KT P6SM VCSH SCT020
     FM180900 08012KT P6SM SCT025
     FM181400 10012G20KT P6SM FEW025=